createdAt,value
2022-08-26T00:00:14.119Z,41.72
2022-08-26T00:05:17.759Z,41.55
2022-08-26T00:10:22.615Z,42.05
2022-08-26T00:15:28.928Z,42.03
2022-08-26T00:20:34.831Z,41.60
2022-08-26T00:25:42.546Z,41.53
2022-08-26T00:30:48.076Z,41.22
2022-08-26T00:35:54.565Z,41.80
2022-08-26T00:41:00.448Z,41.85
2022-08-26T00:46:09.254Z,42.35
2022-08-26T00:51:18.175Z,41.67
2022-08-26T00:56:27.482Z,41.60
2022-08-26T01:01:31.197Z,41.20
2022-08-26T01:06:34.537Z,41.30
2022-08-26T01:11:39.711Z,41.35
2022-08-26T01:16:44.271Z,40.90
2022-08-26T01:21:53.201Z,41.65
2022-08-26T01:27:01.519Z,42.22
2022-08-26T01:32:08.473Z,42.22
2022-08-26T01:37:15.929Z,41.42
2022-08-26T01:42:23.372Z,41.17
2022-08-26T01:47:30.257Z,41.83
2022-08-26T01:52:37.076Z,42.70
2022-08-26T01:57:42.054Z,40.95
2022-08-26T02:02:49.261Z,42.50
2022-08-26T02:07:52.257Z,41.33
2022-08-26T02:12:56.571Z,41.78
2022-08-26T02:18:00.545Z,42.05
2022-08-26T02:23:03.931Z,41.80
2022-08-26T02:28:08.251Z,42.08
2022-08-26T02:33:11.647Z,41.72
2022-08-26T02:38:14.646Z,41.45
2022-08-26T02:43:23.868Z,41.85
2022-08-26T02:48:34.714Z,41.15
2022-08-26T02:53:38.767Z,41.92
2022-08-26T02:58:43.568Z,41.85
2022-08-26T03:03:46.425Z,41.33
2022-08-26T03:08:52.821Z,41.17
2022-08-26T03:13:57.121Z,41.17
2022-08-26T03:19:00.951Z,41.83
2022-08-26T03:24:04.147Z,41.60
2022-08-26T03:29:25.975Z,41.80
2022-08-26T03:34:31.947Z,41.58
2022-08-26T03:39:35.192Z,41.70
2022-08-26T03:44:42.240Z,41.22
2022-08-26T03:49:45.330Z,41.45
2022-08-26T03:54:48.226Z,40.92
2022-08-26T03:59:52.824Z,41.13
2022-08-26T04:04:56.586Z,41.05
2022-08-26T04:10:00.129Z,40.78
2022-08-26T04:15:05.473Z,41.05
2022-08-26T04:20:09.739Z,40.67
2022-08-26T04:25:13.779Z,41.17
2022-08-26T04:30:18.190Z,41.22
2022-08-26T04:35:25.457Z,41.00
2022-08-26T04:40:29.143Z,41.83
2022-08-26T04:45:36.264Z,41.15
2022-08-26T04:50:39.239Z,41.30
2022-08-26T04:55:48.522Z,40.83
2022-08-26T05:00:56.329Z,41.72
2022-08-26T05:05:59.726Z,40.75
2022-08-26T05:11:07.067Z,41.13
2022-08-26T05:16:15.502Z,41.20
2022-08-26T05:21:20.874Z,41.10
2022-08-26T05:26:25.796Z,41.40
2022-08-26T05:31:32.595Z,41.30
2022-08-26T05:36:36.977Z,41.55
2022-08-26T05:41:42.884Z,41.40
2022-08-26T05:46:49.400Z,41.50
2022-08-26T05:51:54.129Z,41.35
2022-08-26T05:56:57.561Z,41.78
2022-08-26T06:02:03.200Z,41.42
2022-08-26T06:07:06.256Z,41.92
2022-08-26T06:12:12.919Z,41.88
2022-08-26T06:17:19.334Z,42.65
2022-08-26T06:22:40.273Z,42.58
2022-08-26T06:27:43.540Z,41.83
2022-08-26T06:32:49.431Z,43.40
2022-08-26T06:37:52.423Z,42.63
2022-08-26T06:42:55.485Z,42.42
2022-08-26T06:47:59.727Z,42.15
2022-08-26T06:53:02.690Z,41.88
2022-08-26T06:58:06.326Z,42.42
2022-08-26T07:03:11.333Z,41.97
2022-08-26T07:08:14.635Z,42.50
2022-08-26T07:13:18.193Z,42.33
2022-08-26T07:18:36.718Z,42.03
2022-08-26T07:23:40.196Z,42.33
2022-08-26T07:28:44.216Z,41.80
2022-08-26T07:33:49.115Z,42.17
2022-08-26T07:38:53.898Z,42.05
2022-08-26T07:43:56.966Z,41.17
2022-08-26T07:49:01.768Z,41.88
2022-08-26T07:54:05.501Z,42.00
2022-08-26T07:59:13.560Z,41.17
2022-08-26T08:04:26.122Z,42.22
2022-08-26T08:09:29.516Z,41.80
2022-08-26T08:14:32.442Z,41.70
2022-08-26T08:19:39.170Z,42.70
2022-08-26T08:24:42.715Z,41.85
2022-08-26T08:29:46.539Z,42.85
2022-08-26T08:34:51.001Z,42.60
2022-08-26T08:39:53.975Z,42.45
2022-08-26T08:44:59.627Z,42.10
2022-08-26T08:50:12.979Z,42.47
2022-08-26T08:55:18.274Z,42.50
2022-08-26T09:00:30.296Z,42.47
2022-08-26T09:05:42.610Z,42.80
2022-08-26T09:10:53.985Z,42.42
2022-08-26T09:16:06.744Z,43.03
2022-08-26T09:21:14.141Z,43.17
2022-08-26T09:26:19.965Z,43.20
2022-08-26T09:31:26.037Z,43.60
2022-08-26T09:36:41.494Z,42.97
2022-08-26T09:41:44.522Z,43.22
2022-08-26T09:46:56.042Z,43.28
2022-08-26T09:52:15.090Z,42.38
2022-08-26T09:57:22.427Z,43.50
2022-08-26T10:02:36.953Z,43.03
2022-08-26T10:07:45.173Z,44.03
2022-08-26T10:12:56.429Z,43.25
2022-08-26T10:18:05.439Z,43.30
2022-08-26T10:23:15.346Z,42.80
2022-08-26T10:28:23.729Z,43.58
2022-08-26T10:33:26.756Z,43.17
2022-08-26T10:38:35.590Z,43.15
2022-08-26T10:43:43.782Z,43.10
2022-08-26T10:48:52.126Z,43.25
2022-08-26T10:53:59.893Z,43.08
2022-08-26T10:59:12.510Z,43.28
2022-08-26T11:04:29.360Z,43.70
2022-08-26T11:09:49.695Z,43.38
2022-08-26T11:14:58.891Z,43.90
2022-08-26T11:20:08.588Z,43.30
2022-08-26T11:25:15.220Z,43.60
2022-08-26T11:30:35.159Z,43.30
2022-08-26T11:35:52.233Z,43.15
2022-08-26T11:41:11.122Z,43.50
2022-08-26T11:46:25.002Z,44.22
2022-08-26T11:51:28.069Z,43.28
2022-08-26T11:56:36.130Z,43.25
2022-08-26T12:01:41.480Z,43.63
2022-08-26T12:06:49.737Z,43.65
2022-08-26T12:12:12.098Z,44.15
2022-08-26T12:17:17.791Z,43.45
2022-08-26T12:22:27.213Z,43.72
2022-08-26T12:27:33.634Z,43.63
2022-08-26T12:32:58.171Z,43.50
2022-08-26T12:38:02.402Z,43.30
2022-08-26T12:43:08.904Z,43.03
2022-08-26T12:48:13.837Z,44.15
2022-08-26T12:53:24.079Z,43.65
2022-08-26T12:58:31.611Z,43.30
2022-08-26T13:03:44.477Z,43.65
2022-08-26T13:08:48.442Z,43.90
2022-08-26T13:13:56.621Z,43.58
2022-08-26T13:19:01.629Z,42.63
2022-08-26T13:24:07.348Z,42.70
2022-08-26T13:29:12.610Z,42.67
2022-08-26T13:34:19.063Z,43.45
2022-08-26T13:39:22.608Z,44.08
2022-08-26T13:44:27.319Z,44.10
2022-08-26T13:49:30.317Z,44.72
2022-08-26T13:54:33.324Z,42.55
2022-08-26T13:59:37.547Z,42.58
2022-08-26T14:04:41.531Z,42.30
2022-08-26T14:09:44.506Z,42.95
2022-08-26T14:14:48.821Z,42.30
2022-08-26T14:19:52.394Z,42.83
2022-08-26T14:24:56.440Z,42.80
2022-08-26T14:30:00.784Z,42.10
2022-08-26T14:35:03.879Z,42.67
2022-08-26T14:40:08.999Z,41.95
2022-08-26T14:45:15.949Z,42.40
2022-08-26T14:50:22.672Z,42.72
2022-08-26T14:55:25.764Z,43.90
2022-08-26T15:00:31.131Z,44.80
2022-08-26T15:05:35.171Z,43.55
2022-08-26T15:10:38.625Z,43.75
2022-08-26T15:15:42.941Z,43.33
2022-08-26T15:20:45.823Z,47.20
2022-08-26T15:25:48.847Z,45.70
2022-08-26T15:30:53.157Z,46.85
2022-08-26T15:35:56.122Z,46.00
2022-08-26T15:41:02.931Z,45.92
2022-08-26T15:46:11.522Z,45.80
2022-08-26T15:51:22.318Z,45.53
2022-08-26T15:56:26.690Z,44.80
2022-08-26T16:01:32.583Z,45.90
2022-08-26T16:06:37.568Z,46.45
2022-08-26T16:11:40.499Z,46.53
2022-08-26T16:16:44.815Z,46.90
2022-08-26T16:21:47.992Z,47.17
2022-08-26T16:26:50.895Z,46.97
2022-08-26T16:31:55.563Z,46.40
2022-08-26T16:36:58.525Z,46.70
2022-08-26T16:42:01.517Z,47.22
2022-08-26T16:47:05.953Z,45.50
2022-08-26T16:52:10.502Z,46.03
2022-08-26T16:57:14.511Z,45.97
2022-08-26T17:02:18.791Z,46.22
2022-08-26T17:07:21.692Z,46.95
2022-08-26T17:12:24.741Z,45.10
2022-08-26T17:17:29.390Z,46.58
2022-08-26T17:22:34.649Z,46.20
2022-08-26T17:27:37.770Z,45.55
2022-08-26T17:32:43.573Z,46.30
2022-08-26T17:37:47.536Z,46.58
2022-08-26T17:42:51.066Z,46.75
2022-08-26T17:47:57.055Z,46.08
2022-08-26T17:53:00.139Z,45.78
2022-08-26T17:58:10.291Z,45.53
2022-08-26T18:03:19.990Z,45.80
2022-08-26T18:08:26.010Z,44.80
2022-08-26T18:13:28.865Z,45.10
2022-08-26T18:18:33.707Z,45.20
2022-08-26T18:23:36.989Z,47.03
2022-08-26T18:28:39.979Z,44.75
2022-08-26T18:33:44.705Z,45.42
2022-08-26T18:38:50.392Z,44.40
2022-08-26T18:43:54.514Z,48.00
2022-08-26T18:48:58.834Z,45.63
2022-08-26T18:54:03.616Z,45.90
2022-08-26T18:59:07.934Z,44.53
2022-08-26T19:04:15.404Z,44.03
2022-08-26T19:09:19.769Z,45.42
2022-08-26T19:14:23.852Z,46.30
2022-08-26T19:19:28.543Z,45.58
2022-08-26T19:24:31.825Z,45.53
2022-08-26T19:29:36.757Z,44.40
2022-08-26T19:34:41.010Z,45.05
2022-08-26T19:39:43.906Z,44.90
2022-08-26T19:45:04.582Z,45.28
2022-08-26T19:50:12.478Z,44.97
2022-08-26T19:55:18.523Z,45.08
2022-08-26T20:00:24.509Z,46.08
2022-08-26T20:05:29.111Z,45.45
2022-08-26T20:10:32.014Z,44.65
2022-08-26T20:15:35.129Z,44.63
2022-08-26T20:20:56.907Z,43.60
2022-08-26T20:25:59.782Z,45.05
2022-08-26T20:31:04.281Z,44.55
2022-08-26T20:36:09.635Z,43.97
2022-08-26T20:41:12.724Z,44.00
2022-08-26T20:46:17.910Z,44.00
2022-08-26T20:51:24.856Z,44.50
2022-08-26T20:56:28.086Z,44.85
2022-08-26T21:01:34.544Z,44.22
2022-08-26T21:06:39.546Z,44.28
2022-08-26T21:11:45.742Z,44.45
2022-08-26T21:16:48.914Z,43.50
2022-08-26T21:21:53.193Z,42.78
2022-08-26T21:26:56.095Z,43.15
2022-08-26T21:31:59.113Z,43.95
2022-08-26T21:37:03.396Z,44.45
2022-08-26T21:42:11.933Z,45.15
2022-08-26T21:47:14.861Z,44.70
2022-08-26T21:52:21.211Z,43.92
2022-08-26T21:57:24.073Z,43.97
2022-08-26T22:02:27.017Z,43.47
2022-08-26T22:07:31.315Z,44.00
2022-08-26T22:12:34.265Z,43.55
2022-08-26T22:17:37.822Z,44.30
2022-08-26T22:22:42.039Z,45.83
2022-08-26T22:27:45.631Z,43.60
2022-08-26T22:32:48.621Z,45.08
2022-08-26T22:37:52.879Z,44.72
2022-08-26T22:43:00.473Z,44.35
2022-08-26T22:48:05.014Z,44.22
2022-08-26T22:53:09.504Z,44.38
2022-08-26T22:58:13.519Z,45.53
2022-08-26T23:03:17.557Z,45.10
2022-08-26T23:08:22.338Z,44.80
2022-08-26T23:13:25.230Z,43.17
2022-08-26T23:18:28.170Z,43.70
2022-08-26T23:23:32.518Z,44.30
2022-08-26T23:28:36.487Z,44.63
2022-08-26T23:33:58.604Z,44.95
2022-08-26T23:39:03.199Z,42.97
2022-08-26T23:44:06.503Z,45.95
2022-08-26T23:49:09.666Z,45.63
2022-08-26T23:54:13.967Z,46.10
2022-08-26T23:59:16.866Z,45.75
